ココス (キーリング) 諸島 の空港の天気 - METARとTAF

ココス島国際空港 ( YPCC / CCK ) - ココス諸島 ココス (キーリング) 諸島
飛行場実況気象(Metar)
観測時間04/25 21:00 CCT (04/25 14:30 UTC)
風向・風速南東 7m/s
視程6000m
天気現象
全天の4割程度の雲 雲底高度 520m
全天を覆う雲 雲底高度 2380m
気温27℃
湿度84%
気圧1012hPa
METARYPCC 251430Z AUTO 13014KT 6000 // SCT017 OVC078 27/24 Q1012
過去の天気等 Google飛行場航空写真 Wunderground天気予報

過去48時間のMETAR

飛行場予報(TAF)
発表時間: 4/25 17:07 CCT (4/25 10:37 UTC)
予報対象時間: 25日18時 CCT ~ 26日18時 CCT
風向・風速東 6m/s
視程10km以上
天気現象弱いしゅう雨
全天の4割程度の雲 雲底高度 610m
25日18時 CCT ~ 26日18時 CCT に一時的に
風向・風速不定 13m/s 瞬間風速 18m/s
視程2,000m
天気現象雷雨
全天の8割程度の雲 雲底高度 240m
少しの積乱雲 雲底高度 610m
TAF YPCC 251037Z 2512/2612 08012KT 9999 -SHRA SCT020
TEMPO 2512/2612 VRB25G35KT 2000 TSRA BKN008 FEW020CB